sensor_id;sensor_type;location;lat;lon;timestamp;temperature;humidity
21801;DHT22;11062;51.164;16.924;2023-04-20T00:09:46;27.20;37.20
21801;DHT22;11062;51.164;16.924;2023-04-20T00:12:12;27.50;42.80
21801;DHT22;11062;51.164;16.924;2023-04-20T00:14:37;27.70;43.60
21801;DHT22;11062;51.164;16.924;2023-04-20T00:17:03;28.00;43.40
21801;DHT22;11062;51.164;16.924;2023-04-20T00:19:30;27.30;42.50
21801;DHT22;11062;51.164;16.924;2023-04-20T00:21:58;25.90;42.00
21801;DHT22;11062;51.164;16.924;2023-04-20T00:26:50;27.20;37.10
21801;DHT22;11062;51.164;16.924;2023-04-20T00:29:19;27.40;42.80
21801;DHT22;11062;51.164;16.924;2023-04-20T00:31:45;27.60;37.50
21801;DHT22;11062;51.164;16.924;2023-04-20T00:34:14;27.80;42.80
21801;DHT22;11062;51.164;16.924;2023-04-20T00:39:07;27.50;37.20
21801;DHT22;11062;51.164;16.924;2023-04-20T00:41:32;27.90;43.70
21801;DHT22;11062;51.164;16.924;2023-04-20T00:44:01;27.30;36.90
21801;DHT22;11062;51.164;16.924;2023-04-20T00:46:27;26.00;36.60
21801;DHT22;11062;51.164;16.924;2023-04-20T00:51:21;27.30;38.00
21801;DHT22;11062;51.164;16.924;2023-04-20T00:53:47;28.10;39.90
21801;DHT22;11062;51.164;16.924;2023-04-20T00:56:15;27.70;43.80
21801;DHT22;11062;51.164;16.924;2023-04-20T00:58:42;25.70;38.30
21801;DHT22;11062;51.164;16.924;2023-04-20T01:01:12;27.30;42.40
21801;DHT22;11062;51.164;16.924;2023-04-20T01:03:40;27.80;37.90
21801;DHT22;11062;51.164;16.924;2023-04-20T01:06:06;27.50;43.00
21801;DHT22;11062;51.164;16.924;2023-04-20T01:11:02;27.50;37.80
21801;DHT22;11062;51.164;16.924;2023-04-20T01:13:27;26.70;42.50
21801;DHT22;11062;51.164;16.924;2023-04-20T01:15:57;27.40;36.80
21801;DHT22;11062;51.164;16.924;2023-04-20T01:18:24;28.20;39.60
21801;DHT22;11062;51.164;16.924;2023-04-20T01:20:51;25.90;40.90
21801;DHT22;11062;51.164;16.924;2023-04-20T01:23:17;26.00;41.50
21801;DHT22;11062;51.164;16.924;2023-04-20T01:25:43;27.90;42.50
21801;DHT22;11062;51.164;16.924;2023-04-20T01:30:36;27.50;36.60
21801;DHT22;11062;51.164;16.924;2023-04-20T01:33:02;28.10;40.50
21801;DHT22;11062;51.164;16.924;2023-04-20T01:35:28;26.20;41.30
21801;DHT22;11062;51.164;16.924;2023-04-20T01:37:57;27.40;36.70
21801;DHT22;11062;51.164;16.924;2023-04-20T01:42:49;27.30;36.60
21801;DHT22;11062;51.164;16.924;2023-04-20T01:45:15;27.80;42.60
21801;DHT22;11062;51.164;16.924;2023-04-20T01:47:40;27.70;43.40
21801;DHT22;11062;51.164;16.924;2023-04-20T01:50:06;27.90;43.00
21801;DHT22;11062;51.164;16.924;2023-04-20T01:52:32;28.20;40.80
21801;DHT22;11062;51.164;16.924;2023-04-20T01:54:58;26.00;41.40
21801;DHT22;11062;51.164;16.924;2023-04-20T01:57:27;28.00;42.90
21801;DHT22;11062;51.164;16.924;2023-04-20T01:59:55;27.60;37.20
21801;DHT22;11062;51.164;16.924;2023-04-20T02:02:21;25.80;41.50
21801;DHT22;11062;51.164;16.924;2023-04-20T02:04:47;28.30;42.90
21801;DHT22;11062;51.164;16.924;2023-04-20T02:07:16;28.30;42.70
21801;DHT22;11062;51.164;16.924;2023-04-20T02:09:41;27.80;37.30
21801;DHT22;11062;51.164;16.924;2023-04-20T02:14:33;27.50;36.40
21801;DHT22;11062;51.164;16.924;2023-04-20T02:17:02;28.10;40.20
21801;DHT22;11062;51.164;16.924;2023-04-20T02:19:28;27.70;42.10
21801;DHT22;11062;51.164;16.924;2023-04-20T02:29:12;27.40;36.50
21801;DHT22;11062;51.164;16.924;2023-04-20T02:31:38;25.40;40.60
21801;DHT22;11062;51.164;16.924;2023-04-20T02:34:04;27.50;42.00
21801;DHT22;11062;51.164;16.924;2023-04-20T02:36:31;27.60;41.80
21801;DHT22;11062;51.164;16.924;2023-04-20T02:38:56;28.10;42.40
21801;DHT22;11062;51.164;16.924;2023-04-20T02:41:22;28.10;42.40
21801;DHT22;11062;51.164;16.924;2023-04-20T02:43:48;27.70;42.30
21801;DHT22;11062;51.164;16.924;2023-04-20T02:46:14;27.90;42.30
21801;DHT22;11062;51.164;16.924;2023-04-20T02:48:40;25.60;40.60
21801;DHT22;11062;51.164;16.924;2023-04-20T02:51:06;27.40;41.50
21801;DHT22;11062;51.164;16.924;2023-04-20T02:53:32;27.60;42.30
21801;DHT22;11062;51.164;16.924;2023-04-20T02:58:26;27.30;36.40
21801;DHT22;11062;51.164;16.924;2023-04-20T03:00:58;27.50;37.10
21801;DHT22;11062;51.164;16.924;2023-04-20T03:03:25;28.30;39.30
21801;DHT22;11062;51.164;16.924;2023-04-20T03:05:51;28.00;41.80
21801;DHT22;11062;51.164;16.924;2023-04-20T03:08:17;27.60;41.80
21801;DHT22;11062;51.164;16.924;2023-04-20T03:10:43;26.30;41.10
21801;DHT22;11062;51.164;16.924;2023-04-20T03:15:35;27.10;36.30
21801;DHT22;11062;51.164;16.924;2023-04-20T03:18:01;27.10;42.10
21801;DHT22;11062;51.164;16.924;2023-04-20T03:20:27;27.50;43.10
21801;DHT22;11062;51.164;16.924;2023-04-20T03:22:52;27.70;43.10
21801;DHT22;11062;51.164;16.924;2023-04-20T03:25:18;27.30;42.40
21801;DHT22;11062;51.164;16.924;2023-04-20T03:27:47;27.30;42.30
21801;DHT22;11062;51.164;16.924;2023-04-20T03:30:16;27.30;40.30
21801;DHT22;11062;51.164;16.924;2023-04-20T03:32:45;26.30;36.70
21801;DHT22;11062;51.164;16.924;2023-04-20T03:35:11;26.20;38.40
21801;DHT22;11062;51.164;16.924;2023-04-20T03:37:37;26.20;38.70
21801;DHT22;11062;51.164;16.924;2023-04-20T03:40:03;26.40;38.50
21801;DHT22;11062;51.164;16.924;2023-04-20T03:42:31;26.90;37.70
21801;DHT22;11062;51.164;16.924;2023-04-20T03:44:57;27.40;38.60
21801;DHT22;11062;51.164;16.924;2023-04-20T03:47:23;26.80;37.70
21801;DHT22;11062;51.164;16.924;2023-04-20T03:49:53;27.30;38.10
21801;DHT22;11062;51.164;16.924;2023-04-20T03:52:19;27.50;37.50
21801;DHT22;11062;51.164;16.924;2023-04-20T03:54:45;27.10;38.00
21801;DHT22;11062;51.164;16.924;2023-04-20T03:57:11;26.60;37.70
21801;DHT22;11062;51.164;16.924;2023-04-20T03:59:40;26.50;37.60
21801;DHT22;11062;51.164;16.924;2023-04-20T04:02:06;27.40;38.40
21801;DHT22;11062;51.164;16.924;2023-04-20T04:04:32;26.40;37.60
21801;DHT22;11062;51.164;16.924;2023-04-20T04:06:58;26.80;37.70
21801;DHT22;11062;51.164;16.924;2023-04-20T04:09:27;27.30;38.20
21801;DHT22;11062;51.164;16.924;2023-04-20T04:11:52;26.90;38.30
21801;DHT22;11062;51.164;16.924;2023-04-20T04:14:18;27.20;38.50
21801;DHT22;11062;51.164;16.924;2023-04-20T04:16:44;27.30;38.40
21801;DHT22;11062;51.164;16.924;2023-04-20T04:19:10;27.30;38.20
21801;DHT22;11062;51.164;16.924;2023-04-20T04:21:36;26.60;37.90
21801;DHT22;11062;51.164;16.924;2023-04-20T04:24:02;26.70;37.40
21801;DHT22;11062;51.164;16.924;2023-04-20T04:26:28;26.80;37.40
21801;DHT22;11062;51.164;16.924;2023-04-20T04:28:56;26.80;37.40
21801;DHT22;11062;51.164;16.924;2023-04-20T04:31:22;26.70;37.30
21801;DHT22;11062;51.164;16.924;2023-04-20T04:33:52;27.60;37.10
21801;DHT22;11062;51.164;16.924;2023-04-20T04:36:20;26.60;37.00
21801;DHT22;11062;51.164;16.924;2023-04-20T04:38:46;27.70;36.60
21801;DHT22;11062;51.164;16.924;2023-04-20T04:41:12;27.80;37.60
21801;DHT22;11062;51.164;16.924;2023-04-20T04:43:41;27.90;37.60
21801;DHT22;11062;51.164;16.924;2023-04-20T04:46:08;27.70;36.80
21801;DHT22;11062;51.164;16.924;2023-04-20T04:48:35;27.80;36.80
21801;DHT22;11062;51.164;16.924;2023-04-20T04:51:01;27.00;36.30
21801;DHT22;11062;51.164;16.924;2023-04-20T04:53:27;27.10;36.60
21801;DHT22;11062;51.164;16.924;2023-04-20T04:55:55;27.80;36.90
21801;DHT22;11062;51.164;16.924;2023-04-20T04:58:21;27.90;37.70
21801;DHT22;11062;51.164;16.924;2023-04-20T05:00:47;27.90;37.50
21801;DHT22;11062;51.164;16.924;2023-04-20T05:03:16;27.90;37.60
21801;DHT22;11062;51.164;16.924;2023-04-20T05:05:42;26.80;36.90
21801;DHT22;11062;51.164;16.924;2023-04-20T05:08:08;26.90;36.40
21801;DHT22;11062;51.164;16.924;2023-04-20T05:10:34;27.80;38.00
21801;DHT22;11062;51.164;16.924;2023-04-20T05:13:00;26.90;37.60
21801;DHT22;11062;51.164;16.924;2023-04-20T05:15:26;27.70;37.90
21801;DHT22;11062;51.164;16.924;2023-04-20T05:17:52;27.80;37.90
21801;DHT22;11062;51.164;16.924;2023-04-20T05:20:18;27.80;38.70
21801;DHT22;11062;51.164;16.924;2023-04-20T05:22:45;27.30;37.20
21801;DHT22;11062;51.164;16.924;2023-04-20T05:25:13;27.00;37.30
21801;DHT22;11062;51.164;16.924;2023-04-20T05:27:39;27.60;37.70
21801;DHT22;11062;51.164;16.924;2023-04-20T05:30:05;28.00;38.00
21801;DHT22;11062;51.164;16.924;2023-04-20T05:32:31;27.40;36.90
21801;DHT22;11062;51.164;16.924;2023-04-20T05:34:57;28.10;37.80
21801;DHT22;11062;51.164;16.924;2023-04-20T05:37:23;27.20;37.70
21801;DHT22;11062;51.164;16.924;2023-04-20T05:39:49;28.10;37.60
21801;DHT22;11062;51.164;16.924;2023-04-20T05:42:14;28.10;37.80
21801;DHT22;11062;51.164;16.924;2023-04-20T05:44:41;27.50;37.20
21801;DHT22;11062;51.164;16.924;2023-04-20T05:47:08;27.70;37.50
21801;DHT22;11062;51.164;16.924;2023-04-20T06:24:13;28.20;37.10
21801;DHT22;11062;51.164;16.924;2023-04-20T06:26:42;28.00;37.50
21801;DHT22;11062;51.164;16.924;2023-04-20T06:29:08;28.80;38.40
21801;DHT22;11062;51.164;16.924;2023-04-20T06:31:37;28.90;38.00
21801;DHT22;11062;51.164;16.924;2023-04-20T06:34:03;29.00;38.00
21801;DHT22;11062;51.164;16.924;2023-04-20T06:36:29;29.20;37.80
21801;DHT22;11062;51.164;16.924;2023-04-20T06:38:58;28.30;36.60
21801;DHT22;11062;51.164;16.924;2023-04-20T06:41:24;29.30;37.70
21801;DHT22;11062;51.164;16.924;2023-04-20T06:43:53;29.40;37.50
21801;DHT22;11062;51.164;16.924;2023-04-20T06:46:19;28.50;36.80
21801;DHT22;11062;51.164;16.924;2023-04-20T07:29:17;30.00;36.50
21801;DHT22;11062;51.164;16.924;2023-04-20T07:35:32;30.20;36.70
21801;DHT22;11062;51.164;16.924;2023-04-20T07:37:58;30.30;36.40
21801;DHT22;11062;51.164;16.924;2023-04-20T07:40:24;30.40;37.20
21801;DHT22;11062;51.164;16.924;2023-04-20T07:42:50;30.40;37.30
21801;DHT22;11062;51.164;16.924;2023-04-20T07:45:16;30.60;37.40
21801;DHT22;11062;51.164;16.924;2023-04-20T07:47:42;30.60;37.20
21801;DHT22;11062;51.164;16.924;2023-04-20T07:50:11;30.60;37.20
21801;DHT22;11062;51.164;16.924;2023-04-20T07:52:37;30.70;37.30
21801;DHT22;11062;51.164;16.924;2023-04-20T07:55:07;30.00;36.60
21801;DHT22;11062;51.164;16.924;2023-04-20T07:57:36;31.00;36.80
21801;DHT22;11062;51.164;16.924;2023-04-20T08:00:03;31.10;37.40
21801;DHT22;11062;51.164;16.924;2023-04-20T08:02:32;31.20;36.90
21801;DHT22;11062;51.164;16.924;2023-04-20T08:04:58;31.30;37.50
21801;DHT22;11062;51.164;16.924;2023-04-20T08:07:28;30.80;36.40
21801;DHT22;11062;51.164;16.924;2023-04-20T09:18:55;32.70;36.00
21801;DHT22;11062;51.164;16.924;2023-04-20T09:21:26;32.70;36.50
21801;DHT22;11062;51.164;16.924;2023-04-20T09:43:30;33.10;35.60
21801;DHT22;11062;51.164;16.924;2023-04-20T09:46:02;32.40;35.60
21801;DHT22;11062;51.164;16.924;2023-04-20T09:48:33;33.60;36.50
21801;DHT22;11062;51.164;16.924;2023-04-20T09:51:07;33.20;35.60
21801;DHT22;11062;51.164;16.924;2023-04-20T09:53:37;32.70;35.40
21801;DHT22;11062;51.164;16.924;2023-04-20T11:30:23;36.80;32.40
21801;DHT22;11062;51.164;16.924;2023-04-20T11:32:53;36.90;32.50
21801;DHT22;11062;51.164;16.924;2023-04-20T11:35:19;37.00;32.20
21801;DHT22;11062;51.164;16.924;2023-04-20T11:37:46;37.20;32.10
21801;DHT22;11062;51.164;16.924;2023-04-20T11:40:13;37.30;32.30
21801;DHT22;11062;51.164;16.924;2023-04-20T11:42:39;37.80;32.10
21801;DHT22;11062;51.164;16.924;2023-04-20T11:45:05;37.30;31.60
21801;DHT22;11062;51.164;16.924;2023-04-20T11:47:31;37.70;32.50
21801;DHT22;11062;51.164;16.924;2023-04-20T11:49:57;37.90;31.80
21801;DHT22;11062;51.164;16.924;2023-04-20T11:52:23;38.20;32.10
21801;DHT22;11062;51.164;16.924;2023-04-20T11:54:49;38.50;31.40
21801;DHT22;11062;51.164;16.924;2023-04-20T11:57:15;38.70;31.00
21801;DHT22;11062;51.164;16.924;2023-04-20T11:59:41;39.10;31.40
21801;DHT22;11062;51.164;16.924;2023-04-20T12:02:13;39.30;30.00
21801;DHT22;11062;51.164;16.924;2023-04-20T12:04:40;39.60;30.00
21801;DHT22;11062;51.164;16.924;2023-04-20T12:07:06;39.80;30.40
21801;DHT22;11062;51.164;16.924;2023-04-20T12:09:32;40.00;30.00
21801;DHT22;11062;51.164;16.924;2023-04-20T12:12:05;40.30;30.00
21801;DHT22;11062;51.164;16.924;2023-04-20T12:14:32;40.50;29.10
21801;DHT22;11062;51.164;16.924;2023-04-20T12:16:58;40.50;29.50
21801;DHT22;11062;51.164;16.924;2023-04-20T12:19:24;40.70;29.30
21801;DHT22;11062;51.164;16.924;2023-04-20T12:21:50;41.10;29.00
21801;DHT22;11062;51.164;16.924;2023-04-20T12:24:16;41.40;29.00
21801;DHT22;11062;51.164;16.924;2023-04-20T12:26:42;41.50;28.60
21801;DHT22;11062;51.164;16.924;2023-04-20T12:29:08;41.50;27.80
21801;DHT22;11062;51.164;16.924;2023-04-20T12:31:34;41.70;28.10
21801;DHT22;11062;51.164;16.924;2023-04-20T12:34:00;41.70;28.10
21801;DHT22;11062;51.164;16.924;2023-04-20T12:36:26;41.80;27.90
21801;DHT22;11062;51.164;16.924;2023-04-20T12:38:53;41.80;28.20
21801;DHT22;11062;51.164;16.924;2023-04-20T12:41:21;41.70;28.00
21801;DHT22;11062;51.164;16.924;2023-04-20T12:43:48;41.50;28.10
21801;DHT22;11062;51.164;16.924;2023-04-20T12:46:15;41.30;28.20
21801;DHT22;11062;51.164;16.924;2023-04-20T12:48:41;41.10;28.30
21801;DHT22;11062;51.164;16.924;2023-04-20T12:51:07;40.90;28.50
21801;DHT22;11062;51.164;16.924;2023-04-20T12:53:33;40.60;28.70
21801;DHT22;11062;51.164;16.924;2023-04-20T12:55:59;40.40;29.00
21801;DHT22;11062;51.164;16.924;2023-04-20T12:58:25;40.10;29.20
21801;DHT22;11062;51.164;16.924;2023-04-20T13:00:51;40.00;28.80
21801;DHT22;11062;51.164;16.924;2023-04-20T13:03:17;39.70;29.30
21801;DHT22;11062;51.164;16.924;2023-04-20T13:05:42;39.50;29.30
21801;DHT22;11062;51.164;16.924;2023-04-20T13:08:11;39.40;29.10
21801;DHT22;11062;51.164;16.924;2023-04-20T13:10:39;39.40;29.20
21801;DHT22;11062;51.164;16.924;2023-04-20T13:13:07;39.30;29.10
21801;DHT22;11062;51.164;16.924;2023-04-20T13:15:34;39.20;29.30
21801;DHT22;11062;51.164;16.924;2023-04-20T13:18:00;39.10;29.40
21801;DHT22;11062;51.164;16.924;2023-04-20T13:20:25;39.10;29.60
21801;DHT22;11062;51.164;16.924;2023-04-20T13:22:59;39.10;29.70
21801;DHT22;11062;51.164;16.924;2023-04-20T13:25:26;39.00;29.50
21801;DHT22;11062;51.164;16.924;2023-04-20T13:27:53;38.80;29.80
21801;DHT22;11062;51.164;16.924;2023-04-20T13:30:20;38.70;29.80
21801;DHT22;11062;51.164;16.924;2023-04-20T13:32:46;38.50;29.90
21801;DHT22;11062;51.164;16.924;2023-04-20T13:35:12;38.30;29.70
21801;DHT22;11062;51.164;16.924;2023-04-20T13:37:40;38.10;29.80
21801;DHT22;11062;51.164;16.924;2023-04-20T13:40:07;37.90;30.00
21801;DHT22;11062;51.164;16.924;2023-04-20T13:42:33;37.80;30.10
21801;DHT22;11062;51.164;16.924;2023-04-20T13:44:59;37.70;30.40
21801;DHT22;11062;51.164;16.924;2023-04-20T13:47:25;37.60;30.80
21801;DHT22;11062;51.164;16.924;2023-04-20T13:49:51;37.50;31.00
21801;DHT22;11062;51.164;16.924;2023-04-20T13:52:17;37.50;30.70
21801;DHT22;11062;51.164;16.924;2023-04-20T13:54:43;37.60;30.90
21801;DHT22;11062;51.164;16.924;2023-04-20T13:57:09;37.90;30.60
21801;DHT22;11062;51.164;16.924;2023-04-20T13:59:35;38.10;31.10
21801;DHT22;11062;51.164;16.924;2023-04-20T14:02:01;38.20;30.80
21801;DHT22;11062;51.164;16.924;2023-04-20T14:04:27;38.40;30.90
21801;DHT22;11062;51.164;16.924;2023-04-20T14:06:53;38.50;30.30
21801;DHT22;11062;51.164;16.924;2023-04-20T14:09:19;38.40;30.30
21801;DHT22;11062;51.164;16.924;2023-04-20T14:11:45;38.50;30.30
21801;DHT22;11062;51.164;16.924;2023-04-20T14:14:11;38.50;30.60
21801;DHT22;11062;51.164;16.924;2023-04-20T14:16:45;38.40;30.30
21801;DHT22;11062;51.164;16.924;2023-04-20T14:19:12;38.40;30.70
21801;DHT22;11062;51.164;16.924;2023-04-20T14:21:38;38.10;30.50
21801;DHT22;11062;51.164;16.924;2023-04-20T14:24:11;37.80;30.30
21801;DHT22;11062;51.164;16.924;2023-04-20T14:26:37;37.80;30.60
21801;DHT22;11062;51.164;16.924;2023-04-20T14:29:03;37.70;30.60
21801;DHT22;11062;51.164;16.924;2023-04-20T14:31:30;37.50;30.70
21801;DHT22;11062;51.164;16.924;2023-04-20T14:33:57;37.40;30.70
21801;DHT22;11062;51.164;16.924;2023-04-20T14:36:23;37.30;31.30
21801;DHT22;11062;51.164;16.924;2023-04-20T14:38:48;37.10;31.00
21801;DHT22;11062;51.164;16.924;2023-04-20T14:41:15;36.90;31.20
21801;DHT22;11062;51.164;16.924;2023-04-20T14:43:41;36.90;31.50
21801;DHT22;11062;51.164;16.924;2023-04-20T14:46:07;36.60;31.50
21801;DHT22;11062;51.164;16.924;2023-04-20T14:48:33;36.50;32.00
21801;DHT22;11062;51.164;16.924;2023-04-20T14:51:00;36.50;32.80
21801;DHT22;11062;51.164;16.924;2023-04-20T14:53:26;36.60;32.90
21801;DHT22;11062;51.164;16.924;2023-04-20T14:55:52;36.70;31.80
21801;DHT22;11062;51.164;16.924;2023-04-20T14:58:18;36.80;32.20
21801;DHT22;11062;51.164;16.924;2023-04-20T15:00:44;36.90;31.80
21801;DHT22;11062;51.164;16.924;2023-04-20T15:03:11;36.90;31.30
21801;DHT22;11062;51.164;16.924;2023-04-20T15:05:37;37.10;31.50
21801;DHT22;11062;51.164;16.924;2023-04-20T15:08:03;37.30;30.90
21801;DHT22;11062;51.164;16.924;2023-04-20T15:10:29;37.80;30.90
21801;DHT22;11062;51.164;16.924;2023-04-20T15:12:55;38.10;30.50
21801;DHT22;11062;51.164;16.924;2023-04-20T15:15:21;38.50;29.90
21801;DHT22;11062;51.164;16.924;2023-04-20T15:17:47;38.80;29.50
21801;DHT22;11062;51.164;16.924;2023-04-20T15:20:13;39.40;28.50
21801;DHT22;11062;51.164;16.924;2023-04-20T15:22:42;39.40;29.40
21801;DHT22;11062;51.164;16.924;2023-04-20T15:25:08;39.70;28.60
21801;DHT22;11062;51.164;16.924;2023-04-20T15:27:34;40.00;28.70
21801;DHT22;11062;51.164;16.924;2023-04-20T15:30:04;40.20;28.60
21801;DHT22;11062;51.164;16.924;2023-04-20T15:32:31;40.30;28.20
21801;DHT22;11062;51.164;16.924;2023-04-20T15:34:59;40.40;28.20
21801;DHT22;11062;51.164;16.924;2023-04-20T15:37:26;40.50;28.20
21801;DHT22;11062;51.164;16.924;2023-04-20T15:39:52;40.50;28.20
21801;DHT22;11062;51.164;16.924;2023-04-20T15:42:20;40.50;28.10
21801;DHT22;11062;51.164;16.924;2023-04-20T15:44:46;40.60;28.40
21801;DHT22;11062;51.164;16.924;2023-04-20T15:47:11;40.80;28.20
21801;DHT22;11062;51.164;16.924;2023-04-20T15:49:37;40.90;28.10
21801;DHT22;11062;51.164;16.924;2023-04-20T15:52:07;40.80;28.00
21801;DHT22;11062;51.164;16.924;2023-04-20T15:54:35;40.90;28.00
21801;DHT22;11062;51.164;16.924;2023-04-20T15:57:01;41.00;28.00
21801;DHT22;11062;51.164;16.924;2023-04-20T15:59:28;41.10;28.20
21801;DHT22;11062;51.164;16.924;2023-04-20T16:01:55;40.80;28.40
21801;DHT22;11062;51.164;16.924;2023-04-20T16:04:21;40.90;28.20
21801;DHT22;11062;51.164;16.924;2023-04-20T16:06:47;40.90;28.40
21801;DHT22;11062;51.164;16.924;2023-04-20T16:09:13;40.90;28.10
21801;DHT22;11062;51.164;16.924;2023-04-20T16:11:39;40.90;28.30
21801;DHT22;11062;51.164;16.924;2023-04-20T16:14:05;40.90;28.20
21801;DHT22;11062;51.164;16.924;2023-04-20T16:16:31;40.80;28.10
21801;DHT22;11062;51.164;16.924;2023-04-20T16:18:57;40.60;28.00
21801;DHT22;11062;51.164;16.924;2023-04-20T16:21:23;40.50;28.80
21801;DHT22;11062;51.164;16.924;2023-04-20T16:23:53;40.20;28.30
21801;DHT22;11062;51.164;16.924;2023-04-20T16:26:20;40.40;28.40
21801;DHT22;11062;51.164;16.924;2023-04-20T16:28:45;40.20;28.50
21801;DHT22;11062;51.164;16.924;2023-04-20T16:31:11;40.30;28.70
21801;DHT22;11062;51.164;16.924;2023-04-20T16:33:37;40.10;28.40
21801;DHT22;11062;51.164;16.924;2023-04-20T16:36:04;40.00;28.50
21801;DHT22;11062;51.164;16.924;2023-04-20T16:38:30;39.90;28.50
21801;DHT22;11062;51.164;16.924;2023-04-20T16:40:55;39.70;28.60
21801;DHT22;11062;51.164;16.924;2023-04-20T16:43:21;39.60;28.80
21801;DHT22;11062;51.164;16.924;2023-04-20T16:45:47;39.50;28.90
21801;DHT22;11062;51.164;16.924;2023-04-20T16:48:13;39.20;28.90
21801;DHT22;11062;51.164;16.924;2023-04-20T16:50:39;39.00;28.90
21801;DHT22;11062;51.164;16.924;2023-04-20T16:53:06;38.80;29.10
21801;DHT22;11062;51.164;16.924;2023-04-20T16:55:32;38.80;29.30
21801;DHT22;11062;51.164;16.924;2023-04-20T16:57:58;38.70;29.40
21801;DHT22;11062;51.164;16.924;2023-04-20T17:00:34;38.70;29.60
21801;DHT22;11062;51.164;16.924;2023-04-20T17:03:02;38.60;29.70
21801;DHT22;11062;51.164;16.924;2023-04-20T17:05:31;38.50;29.80
21801;DHT22;11062;51.164;16.924;2023-04-20T17:07:57;38.40;29.90
21801;DHT22;11062;51.164;16.924;2023-04-20T17:10:23;38.30;29.90
21801;DHT22;11062;51.164;16.924;2023-04-20T17:12:49;38.20;30.60
21801;DHT22;11062;51.164;16.924;2023-04-20T17:15:15;38.20;30.00
21801;DHT22;11062;51.164;16.924;2023-04-20T17:17:41;38.20;30.00
21801;DHT22;11062;51.164;16.924;2023-04-20T17:20:07;38.10;30.00
21801;DHT22;11062;51.164;16.924;2023-04-20T17:22:33;38.00;30.20
21801;DHT22;11062;51.164;16.924;2023-04-20T17:25:02;38.00;30.30
21801;DHT22;11062;51.164;16.924;2023-04-20T17:27:30;37.80;30.30
21801;DHT22;11062;51.164;16.924;2023-04-20T17:29:56;37.50;30.20
21801;DHT22;11062;51.164;16.924;2023-04-20T17:32:22;37.60;30.50
21801;DHT22;11062;51.164;16.924;2023-04-20T17:34:48;37.50;30.70
21801;DHT22;11062;51.164;16.924;2023-04-20T17:37:16;37.40;30.70
21801;DHT22;11062;51.164;16.924;2023-04-20T17:39:42;37.30;30.80
21801;DHT22;11062;51.164;16.924;2023-04-20T17:42:08;37.20;31.10
21801;DHT22;11062;51.164;16.924;2023-04-20T17:44:35;37.00;31.20
21801;DHT22;11062;51.164;16.924;2023-04-20T17:47:01;36.90;31.50
21801;DHT22;11062;51.164;16.924;2023-04-20T17:49:28;36.70;31.80
21801;DHT22;11062;51.164;16.924;2023-04-20T17:51:56;36.50;31.80
21801;DHT22;11062;51.164;16.924;2023-04-20T17:54:22;36.40;31.90
21801;DHT22;11062;51.164;16.924;2023-04-20T17:56:48;36.20;32.20
21801;DHT22;11062;51.164;16.924;2023-04-20T17:59:14;36.00;32.20
21801;DHT22;11062;51.164;16.924;2023-04-20T18:01:41;35.90;32.40
21801;DHT22;11062;51.164;16.924;2023-04-20T18:04:07;35.70;32.50
21801;DHT22;11062;51.164;16.924;2023-04-20T18:06:33;35.70;32.80
21801;DHT22;11062;51.164;16.924;2023-04-20T18:08:59;35.60;32.90
21801;DHT22;11062;51.164;16.924;2023-04-20T18:11:26;35.40;32.80
21801;DHT22;11062;51.164;16.924;2023-04-20T18:13:51;35.40;33.00
21801;DHT22;11062;51.164;16.924;2023-04-20T18:16:18;35.30;33.10
21801;DHT22;11062;51.164;16.924;2023-04-20T18:18:43;35.30;33.30
21801;DHT22;11062;51.164;16.924;2023-04-20T18:21:09;35.20;33.30
21801;DHT22;11062;51.164;16.924;2023-04-20T18:23:36;35.10;33.50
21801;DHT22;11062;51.164;16.924;2023-04-20T18:26:02;34.90;33.60
21801;DHT22;11062;51.164;16.924;2023-04-20T18:28:28;34.70;33.80
21801;DHT22;11062;51.164;16.924;2023-04-20T18:30:54;34.50;34.10
21801;DHT22;11062;51.164;16.924;2023-04-20T18:33:20;34.40;34.20
21801;DHT22;11062;51.164;16.924;2023-04-20T18:35:46;34.30;34.20
21801;DHT22;11062;51.164;16.924;2023-04-20T18:38:12;34.20;34.30
21801;DHT22;11062;51.164;16.924;2023-04-20T18:40:38;34.10;34.60
21801;DHT22;11062;51.164;16.924;2023-04-20T18:43:04;34.00;34.70
21801;DHT22;11062;51.164;16.924;2023-04-20T18:45:30;33.90;34.70
21801;DHT22;11062;51.164;16.924;2023-04-20T18:47:55;33.80;34.80
21801;DHT22;11062;51.164;16.924;2023-04-20T18:50:23;33.80;35.10
21801;DHT22;11062;51.164;16.924;2023-04-20T18:52:48;33.70;35.10
21801;DHT22;11062;51.164;16.924;2023-04-20T18:55:14;33.60;35.20
21801;DHT22;11062;51.164;16.924;2023-04-20T18:57:40;33.60;35.20
21801;DHT22;11062;51.164;16.924;2023-04-20T19:00:06;33.60;35.30
21801;DHT22;11062;51.164;16.924;2023-04-20T19:02:34;33.60;35.20
21801;DHT22;11062;51.164;16.924;2023-04-20T19:05:00;33.50;35.30
21801;DHT22;11062;51.164;16.924;2023-04-20T19:07:26;33.50;35.40
21801;DHT22;11062;51.164;16.924;2023-04-20T19:09:52;33.40;35.30
21801;DHT22;11062;51.164;16.924;2023-04-20T19:12:17;33.40;35.30
21801;DHT22;11062;51.164;16.924;2023-04-20T19:14:43;33.30;35.30
21801;DHT22;11062;51.164;16.924;2023-04-20T19:17:10;33.30;35.40
21801;DHT22;11062;51.164;16.924;2023-04-20T19:19:36;33.10;35.50
21801;DHT22;11062;51.164;16.924;2023-04-20T19:22:02;33.10;35.60
21801;DHT22;11062;51.164;16.924;2023-04-20T19:24:31;33.00;35.60
21801;DHT22;11062;51.164;16.924;2023-04-20T19:26:58;33.00;35.70
21801;DHT22;11062;51.164;16.924;2023-04-20T19:29:29;32.80;35.60
21801;DHT22;11062;51.164;16.924;2023-04-20T19:32:01;32.90;36.40
21801;DHT22;11062;51.164;16.924;2023-04-20T19:34:27;32.80;35.80
21801;DHT22;11062;51.164;16.924;2023-04-20T19:36:52;32.80;35.80
21801;DHT22;11062;51.164;16.924;2023-04-20T19:39:19;32.80;35.80
21801;DHT22;11062;51.164;16.924;2023-04-20T19:41:45;33.00;35.60
21801;DHT22;11062;51.164;16.924;2023-04-20T19:44:11;33.10;35.30
21801;DHT22;11062;51.164;16.924;2023-04-20T19:46:39;33.30;35.10
21801;DHT22;11062;51.164;16.924;2023-04-20T19:49:05;33.40;34.90
21801;DHT22;11062;51.164;16.924;2023-04-20T19:51:31;33.40;34.10
21801;DHT22;11062;51.164;16.924;2023-04-20T19:54:01;33.50;34.70
21801;DHT22;11062;51.164;16.924;2023-04-20T19:56:29;33.30;34.90
21801;DHT22;11062;51.164;16.924;2023-04-20T19:58:55;33.00;35.30
21801;DHT22;11062;51.164;16.924;2023-04-20T20:03:56;32.50;35.80
21801;DHT22;11062;51.164;16.924;2023-04-20T20:06:22;32.40;36.00
21801;DHT22;11062;51.164;16.924;2023-04-20T20:08:48;32.30;36.20
21801;DHT22;11062;51.164;16.924;2023-04-20T20:11:14;32.20;36.20
21801;DHT22;11062;51.164;16.924;2023-04-20T20:13:40;32.10;36.40